Time;durP1;ratioP1;P1;durP2;ratioP2;P2;SDS_P1;SDS_P2;PMS_P1;PMS_P2;Temp;Humidity;BMP_temperature;BMP_pressure;BME280_temperature;BME280_humidity;BME280_pressure;Samples;Min_cycle;Max_cycle;Signal;HPM_P1;HPM_P2
2023/03/02 00:01:16;;;;;;;98.60;58.93;;;;;;;;;;5083595;28;20188;-85
2023/03/02 00:03:42;;;;;;;91.23;54.47;;;;;;;;;;5077927;28;20182;-86
2023/03/02 00:06:09;;;;;;;97.63;56.37;;;;;;;;;;5055635;28;20180;-86
2023/03/02 00:08:35;;;;;;;89.27;55.77;;;;;;;;;;5069644;28;20525;-88
2023/03/02 00:11:01;;;;;;;87.43;52.60;;;;;;;;;;5056868;28;20177;-84
2023/03/02 00:13:31;;;;;;;89.60;56.77;;;;;;;;;;5068568;28;20287;-86
2023/03/02 00:15:57;;;;;;;93.47;55.50;;;;;;;;;;5076596;28;20181;-84
2023/03/02 00:18:23;;;;;;;87.87;54.20;;;;;;;;;;5085099;28;20179;-88
2023/03/02 00:20:49;;;;;;;92.17;58.10;;;;;;;;;;5087288;28;20225;-84
2023/03/02 00:23:15;;;;;;;100.33;56.97;;;;;;;;;;5057540;28;20197;-87
2023/03/02 00:25:41;;;;;;;89.43;55.80;;;;;;;;;;5071074;28;20255;-87
2023/03/02 00:28:07;;;;;;;89.03;54.40;;;;;;;;;;5073691;28;20182;-84
2023/03/02 00:30:33;;;;;;;95.97;57.40;;;;;;;;;;5076890;28;20189;-85
2023/03/02 00:32:59;;;;;;;100.00;60.00;;;;;;;;;;5053181;28;20526;-82
2023/03/02 00:35:25;;;;;;;94.00;56.17;;;;;;;;;;5072892;28;20240;-86
2023/03/02 00:37:52;;;;;;;88.10;54.30;;;;;;;;;;5072650;28;20185;-87
2023/03/02 00:40:49;;;;;;;93.83;56.33;;;;;;;;;;5073659;28;20212;-86
2023/03/02 00:43:15;;;;;;;86.37;51.37;;;;;;;;;;5085714;28;20567;-84
2023/03/02 00:45:41;;;;;;;87.00;51.80;;;;;;;;;;5083569;28;20243;-85
2023/03/02 00:48:08;;;;;;;108.77;62.13;;;;;;;;;;5087239;28;20272;-86
2023/03/02 00:50:39;;;;;;;91.83;56.73;;;;;;;;;;5084769;28;20188;-84
2023/03/02 00:53:06;;;;;;;98.83;58.83;;;;;;;;;;5103872;28;20175;-85
2023/03/02 00:55:32;;;;;;;88.10;55.90;;;;;;;;;;5048742;28;20181;-86
2023/03/02 00:57:58;;;;;;;96.50;56.77;;;;;;;;;;5086447;28;20178;-87
2023/03/02 01:00:28;;;;;;;97.70;55.93;;;;;;;;;;5082305;28;20207;-89
2023/03/02 01:02:54;;;;;;;91.80;55.43;;;;;;;;;;5088377;28;20276;-84
2023/03/02 01:05:20;;;;;;;87.47;54.27;;;;;;;;;;5087456;28;20242;-85
2023/03/02 01:07:46;;;;;;;91.50;53.80;;;;;;;;;;5067526;28;20207;-84
2023/03/02 01:10:12;;;;;;;96.97;59.47;;;;;;;;;;5069820;28;20197;-86
2023/03/02 01:12:39;;;;;;;86.23;53.20;;;;;;;;;;5080395;28;20280;-86
2023/03/02 01:15:06;;;;;;;82.63;51.83;;;;;;;;;;5089624;28;20186;-85
2023/03/02 01:17:32;;;;;;;85.57;55.80;;;;;;;;;;5058567;28;20595;-84
2023/03/02 01:19:58;;;;;;;102.67;59.73;;;;;;;;;;5075394;28;20201;-83
2023/03/02 01:22:24;;;;;;;93.50;56.10;;;;;;;;;;5090620;28;20191;-84
2023/03/02 01:27:54;;;;;;;95.63;56.00;;;;;;;;;;5066506;28;20183;-84
2023/03/02 01:30:20;;;;;;;100.07;57.60;;;;;;;;;;5066770;28;20186;-86
2023/03/02 01:32:46;;;;;;;100.10;57.73;;;;;;;;;;5069972;28;20189;-85
2023/03/02 01:35:12;;;;;;;99.87;57.53;;;;;;;;;;5070225;28;20230;-87
2023/03/02 01:37:38;;;;;;;99.53;60.53;;;;;;;;;;5081602;28;20196;-85
2023/03/02 01:40:05;;;;;;;95.77;58.00;;;;;;;;;;5081198;28;20204;-85
2023/03/02 01:42:38;;;;;;;104.13;59.23;;;;;;;;;;5074160;28;20600;-86
2023/03/02 01:45:05;;;;;;;92.83;55.00;;;;;;;;;;5067349;28;20628;-85
2023/03/02 01:47:33;;;;;;;86.63;53.53;;;;;;;;;;5062964;28;20187;-86
2023/03/02 01:50:20;;;;;;;93.77;55.67;;;;;;;;;;5052542;28;20283;-85
2023/03/02 01:52:46;;;;;;;89.40;54.17;;;;;;;;;;5077667;28;20601;-83
2023/03/02 01:55:14;;;;;;;95.00;57.47;;;;;;;;;;5068775;28;20211;-84
2023/03/02 01:57:42;;;;;;;98.87;58.77;;;;;;;;;;5084116;28;20732;-87
2023/03/02 02:00:11;;;;;;;91.70;58.50;;;;;;;;;;5071280;28;20224;-86
2023/03/02 02:02:40;;;;;;;94.77;55.83;;;;;;;;;;5085858;28;20528;-85
2023/03/02 02:05:07;;;;;;;88.60;56.23;;;;;;;;;;5082946;28;20181;-87
2023/03/02 02:07:33;;;;;;;91.90;57.17;;;;;;;;;;5068910;28;20191;-84
2023/03/02 02:10:00;;;;;;;85.37;53.70;;;;;;;;;;5046334;28;20346;-84
2023/03/02 02:12:44;;;;;;;98.33;57.83;;;;;;;;;;5052593;28;20182;-86
2023/03/02 02:15:10;;;;;;;91.60;55.90;;;;;;;;;;5069325;28;20666;-84
2023/03/02 02:17:36;;;;;;;96.30;58.80;;;;;;;;;;5050895;28;20176;-85
2023/03/02 02:20:06;;;;;;;97.47;58.97;;;;;;;;;;5048743;28;20213;-84
2023/03/02 02:22:50;;;;;;;99.03;57.70;;;;;;;;;;5084396;28;20212;-84
2023/03/02 02:25:36;;;;;;;107.50;63.53;;;;;;;;;;5084395;28;20576;-84
2023/03/02 02:28:07;;;;;;;114.40;64.27;;;;;;;;;;5056878;28;20188;-86
2023/03/02 02:30:34;;;;;;;119.13;67.73;;;;;;;;;;5086953;28;20268;-85
2023/03/02 02:33:00;;;;;;;120.73;69.83;;;;;;;;;;5089064;28;20198;-84
2023/03/02 02:35:29;;;;;;;122.63;69.30;;;;;;;;;;5083876;28;20224;-83
2023/03/02 02:38:02;;;;;;;131.57;74.67;;;;;;;;;;5069462;28;20192;-88
2023/03/02 02:40:44;;;;;;;121.93;69.23;;;;;;;;;;5084906;28;20216;-84
2023/03/02 02:43:12;;;;;;;113.60;65.63;;;;;;;;;;5082725;28;20189;-87
2023/03/02 02:45:38;;;;;;;119.10;67.40;;;;;;;;;;5085186;28;20330;-87
2023/03/02 02:48:05;;;;;;;128.30;67.33;;;;;;;;;;5072790;28;22009;-84
2023/03/02 02:50:34;;;;;;;113.17;61.53;;;;;;;;;;5069688;28;20201;-86
2023/03/02 02:53:05;;;;;;;109.00;59.37;;;;;;;;;;5103465;28;20200;-87
2023/03/02 02:55:32;;;;;;;113.90;61.30;;;;;;;;;;5055328;28;20210;-83
2023/03/02 02:57:59;;;;;;;127.00;62.10;;;;;;;;;;5060352;28;20652;-86
2023/03/02 03:00:26;;;;;;;125.17;60.60;;;;;;;;;;5070678;28;20209;-84
2023/03/02 03:03:00;;;;;;;104.60;55.60;;;;;;;;;;5073412;28;20227;-86
2023/03/02 03:05:26;;;;;;;121.40;56.27;;;;;;;;;;5083368;28;20184;-88
2023/03/02 03:07:52;;;;;;;103.53;52.77;;;;;;;;;;5083898;28;20622;-85
2023/03/02 03:10:22;;;;;;;98.93;52.23;;;;;;;;;;5081537;28;20210;-85
2023/03/02 03:12:49;;;;;;;94.30;48.77;;;;;;;;;;5075828;28;20185;-86
2023/03/02 03:15:15;;;;;;;107.20;52.87;;;;;;;;;;5072054;28;20201;-87
2023/03/02 03:17:46;;;;;;;113.73;53.83;;;;;;;;;;5083182;28;20173;-85
2023/03/02 03:20:15;;;;;;;105.73;51.37;;;;;;;;;;5089250;28;20219;-85
2023/03/02 03:22:41;;;;;;;115.43;53.60;;;;;;;;;;5053709;28;20182;-85
2023/03/02 03:25:07;;;;;;;93.33;49.53;;;;;;;;;;5082213;28;20173;-86
2023/03/02 03:27:33;;;;;;;94.27;48.33;;;;;;;;;;5082832;28;20181;-85
2023/03/02 03:30:00;;;;;;;103.60;50.63;;;;;;;;;;5086451;28;20188;-84
2023/03/02 03:32:26;;;;;;;111.53;54.33;;;;;;;;;;5082352;28;20181;-86
2023/03/02 03:34:52;;;;;;;110.50;52.13;;;;;;;;;;5075526;28;20217;-85
2023/03/02 03:37:19;;;;;;;120.77;53.63;;;;;;;;;;5075473;28;20178;-86
2023/03/02 03:39:45;;;;;;;118.63;53.33;;;;;;;;;;5070463;28;20590;-87
2023/03/02 03:42:11;;;;;;;101.47;50.80;;;;;;;;;;5070534;28;20176;-84
2023/03/02 03:44:37;;;;;;;104.67;50.70;;;;;;;;;;5079513;28;20162;-88
2023/03/02 03:47:03;;;;;;;97.73;51.37;;;;;;;;;;5074021;28;20184;-86
2023/03/02 03:49:29;;;;;;;97.23;48.53;;;;;;;;;;5051032;28;20213;-87
2023/03/02 03:51:55;;;;;;;110.73;53.63;;;;;;;;;;5057764;28;20265;-86
2023/03/02 03:54:21;;;;;;;115.87;54.13;;;;;;;;;;5088757;28;20613;-84
2023/03/02 03:56:49;;;;;;;127.70;56.07;;;;;;;;;;5068668;28;20648;-86
2023/03/02 03:59:16;;;;;;;111.53;54.37;;;;;;;;;;5085464;28;20208;-86
2023/03/02 04:01:44;;;;;;;120.30;55.40;;;;;;;;;;5085564;28;20283;-86
2023/03/02 04:04:12;;;;;;;108.43;51.80;;;;;;;;;;5062332;28;20697;-87
2023/03/02 04:06:38;;;;;;;113.57;54.83;;;;;;;;;;5069497;28;20182;-83
2023/03/02 04:09:05;;;;;;;110.97;55.67;;;;;;;;;;5070617;28;20187;-85
2023/03/02 04:11:35;;;;;;;135.63;57.90;;;;;;;;;;5086274;28;20256;-85
2023/03/02 04:14:02;;;;;;;113.70;52.03;;;;;;;;;;5081529;28;20252;-85
2023/03/02 04:16:28;;;;;;;114.93;54.37;;;;;;;;;;5086938;28;20246;-84
2023/03/02 04:18:54;;;;;;;127.33;55.87;;;;;;;;;;5085970;28;20520;-86
2023/03/02 04:21:20;;;;;;;119.10;53.10;;;;;;;;;;5084584;28;20203;-85
2023/03/02 04:23:49;;;;;;;110.70;55.47;;;;;;;;;;5086432;28;20184;-86
2023/03/02 04:26:25;;;;;;;99.97;51.50;;;;;;;;;;5075724;28;20182;-85
2023/03/02 04:28:51;;;;;;;107.03;52.13;;;;;;;;;;5056371;28;20189;-85
2023/03/02 04:31:17;;;;;;;105.93;52.33;;;;;;;;;;5051987;28;20203;-86
2023/03/02 04:33:44;;;;;;;109.07;52.27;;;;;;;;;;5069505;28;20315;-86
2023/03/02 04:36:10;;;;;;;104.37;50.63;;;;;;;;;;5069446;28;20188;-85
2023/03/02 04:38:36;;;;;;;91.37;50.20;;;;;;;;;;5070574;28;20174;-87
2023/03/02 04:41:02;;;;;;;100.40;51.23;;;;;;;;;;5078344;28;20220;-85
2023/03/02 04:43:28;;;;;;;112.27;52.90;;;;;;;;;;5064360;28;20204;-88
2023/03/02 04:45:55;;;;;;;119.63;53.07;;;;;;;;;;5083766;28;20192;-87
2023/03/02 04:48:21;;;;;;;109.70;52.47;;;;;;;;;;5085236;28;20188;-85
2023/03/02 04:50:47;;;;;;;122.43;54.13;;;;;;;;;;5067470;28;20251;-85
2023/03/02 04:53:13;;;;;;;119.80;55.70;;;;;;;;;;5072863;28;20283;-86
2023/03/02 04:55:39;;;;;;;120.20;53.40;;;;;;;;;;5078950;28;20217;-83
2023/03/02 04:58:06;;;;;;;102.50;51.73;;;;;;;;;;5070063;28;20215;-87
2023/03/02 05:00:34;;;;;;;106.80;50.50;;;;;;;;;;5083698;28;25345;-86
2023/03/02 05:03:00;;;;;;;118.70;54.40;;;;;;;;;;5067723;28;20192;-83
2023/03/02 05:05:26;;;;;;;114.53;50.60;;;;;;;;;;5086715;28;20593;-85
2023/03/02 05:07:53;;;;;;;104.03;48.80;;;;;;;;;;5075520;28;20193;-87
2023/03/02 05:10:19;;;;;;;95.73;48.97;;;;;;;;;;5071782;28;20188;-83
2023/03/02 05:13:01;;;;;;;107.17;49.57;;;;;;;;;;5055201;28;20189;-88
2023/03/02 05:15:39;;;;;;;94.97;46.33;;;;;;;;;;5076645;28;20196;-85
2023/03/02 05:18:07;;;;;;;95.57;47.23;;;;;;;;;;5075533;28;20214;-84
2023/03/02 05:20:33;;;;;;;95.13;46.00;;;;;;;;;;5082029;28;20211;-86
2023/03/02 05:23:09;;;;;;;87.07;45.03;;;;;;;;;;5083967;28;20203;-86
2023/03/02 05:25:37;;;;;;;84.50;43.43;;;;;;;;;;5078874;28;20546;-84
2023/03/02 05:28:03;;;;;;;89.43;45.10;;;;;;;;;;5078387;28;20190;-88
2023/03/02 05:30:31;;;;;;;94.90;47.30;;;;;;;;;;5068152;28;20184;-85
2023/03/02 05:32:57;;;;;;;95.07;45.03;;;;;;;;;;5075527;28;20205;-86
2023/03/02 05:35:24;;;;;;;102.77;47.60;;;;;;;;;;5048419;28;20255;-86
2023/03/02 05:37:50;;;;;;;94.77;47.73;;;;;;;;;;5057446;28;20196;-86
2023/03/02 05:40:18;;;;;;;97.63;46.97;;;;;;;;;;5081037;28;20279;-85
2023/03/02 05:42:44;;;;;;;96.20;46.27;;;;;;;;;;5066049;28;20196;-84
2023/03/02 05:45:17;;;;;;;110.83;50.57;;;;;;;;;;5082799;28;20201;-84
2023/03/02 05:47:43;;;;;;;110.13;52.33;;;;;;;;;;5080051;28;20264;-85
2023/03/02 05:50:09;;;;;;;151.20;68.90;;;;;;;;;;5091584;28;20276;-83
2023/03/02 05:52:35;;;;;;;120.10;59.53;;;;;;;;;;5086136;28;20407;-85
2023/03/02 05:55:01;;;;;;;121.47;58.53;;;;;;;;;;5062955;28;20663;-85
2023/03/02 05:57:27;;;;;;;126.57;62.10;;;;;;;;;;5068017;28;20182;-86
2023/03/02 05:59:53;;;;;;;162.17;66.87;;;;;;;;;;5070299;28;20216;-84
2023/03/02 06:02:19;;;;;;;140.57;70.13;;;;;;;;;;5058866;28;20189;-87
2023/03/02 06:04:45;;;;;;;140.57;65.40;;;;;;;;;;5067175;28;20185;-86
2023/03/02 06:07:11;;;;;;;120.03;59.37;;;;;;;;;;5072182;28;20550;-88
2023/03/02 06:09:38;;;;;;;115.23;55.13;;;;;;;;;;5055152;28;20223;-84
2023/03/02 06:12:04;;;;;;;133.70;59.90;;;;;;;;;;5091095;28;20173;-83
2023/03/02 06:14:30;;;;;;;99.60;53.53;;;;;;;;;;5073551;28;20208;-86
2023/03/02 06:16:56;;;;;;;117.53;56.50;;;;;;;;;;5076344;28;20635;-88
2023/03/02 06:19:22;;;;;;;123.17;58.53;;;;;;;;;;5072564;28;20221;-87
2023/03/02 06:21:48;;;;;;;112.37;57.20;;;;;;;;;;5069799;28;20194;-84
2023/03/02 06:24:14;;;;;;;107.37;53.40;;;;;;;;;;5087395;28;20625;-85
2023/03/02 06:26:40;;;;;;;108.50;54.53;;;;;;;;;;5065053;28;20234;-88
2023/03/02 06:29:06;;;;;;;113.30;56.07;;;;;;;;;;5058576;28;20645;-85
2023/03/02 06:31:32;;;;;;;111.63;56.13;;;;;;;;;;5067131;28;20189;-83
2023/03/02 06:33:58;;;;;;;120.47;57.50;;;;;;;;;;5086575;28;20253;-84
2023/03/02 06:36:25;;;;;;;126.97;60.80;;;;;;;;;;5058317;28;20215;-83
2023/03/02 06:38:51;;;;;;;122.90;58.83;;;;;;;;;;5096199;28;20177;-84
2023/03/02 06:41:17;;;;;;;105.80;55.77;;;;;;;;;;5063944;28;20195;-83
2023/03/02 06:43:43;;;;;;;110.37;56.13;;;;;;;;;;5090597;28;20188;-83
2023/03/02 06:46:09;;;;;;;136.43;68.63;;;;;;;;;;5078841;28;20238;-84
2023/03/02 06:48:35;;;;;;;129.53;63.03;;;;;;;;;;5076325;28;20227;-87
2023/03/02 06:51:16;;;;;;;109.83;55.43;;;;;;;;;;5094760;28;20227;-83
2023/03/02 06:53:43;;;;;;;113.90;56.37;;;;;;;;;;5085556;28;20200;-83
2023/03/02 06:56:09;;;;;;;116.33;59.70;;;;;;;;;;5071896;28;20230;-85
2023/03/02 06:58:36;;;;;;;129.70;61.87;;;;;;;;;;5089293;28;20254;-87
2023/03/02 07:01:02;;;;;;;118.17;60.17;;;;;;;;;;5084653;28;20250;-86
2023/03/02 07:03:28;;;;;;;138.00;65.63;;;;;;;;;;5071953;28;20174;-85
2023/03/02 07:05:54;;;;;;;129.00;65.50;;;;;;;;;;5069779;28;20177;-86
2023/03/02 07:08:20;;;;;;;141.17;68.10;;;;;;;;;;5066032;28;20551;-85
2023/03/02 07:10:46;;;;;;;139.53;68.50;;;;;;;;;;5087098;28;20185;-87
2023/03/02 07:13:12;;;;;;;126.27;63.03;;;;;;;;;;5085286;28;20189;-84
2023/03/02 07:15:38;;;;;;;136.57;66.80;;;;;;;;;;5055687;28;20218;-85
2023/03/02 07:18:05;;;;;;;135.33;66.23;;;;;;;;;;5074224;28;20188;-87
2023/03/02 07:20:31;;;;;;;141.57;67.77;;;;;;;;;;5083188;28;20213;-85
2023/03/02 07:22:57;;;;;;;136.47;68.47;;;;;;;;;;5084239;28;20238;-87
2023/03/02 07:25:23;;;;;;;131.23;65.77;;;;;;;;;;5060846;28;20181;-87
2023/03/02 07:27:49;;;;;;;134.50;66.23;;;;;;;;;;5053627;28;20178;-84
2023/03/02 07:30:19;;;;;;;139.23;70.03;;;;;;;;;;5082933;28;20203;-86
2023/03/02 07:32:45;;;;;;;130.60;66.47;;;;;;;;;;5087156;28;20250;-84
2023/03/02 07:35:12;;;;;;;131.53;68.63;;;;;;;;;;5070690;28;20336;-85
2023/03/02 07:37:38;;;;;;;130.07;68.20;;;;;;;;;;5072507;28;20181;-83
2023/03/02 07:40:05;;;;;;;129.57;69.80;;;;;;;;;;5082025;28;20562;-84
2023/03/02 07:42:31;;;;;;;129.67;68.60;;;;;;;;;;5084132;28;20169;-84
2023/03/02 07:44:57;;;;;;;125.77;70.37;;;;;;;;;;5084630;28;20317;-86
2023/03/02 07:47:23;;;;;;;135.53;73.77;;;;;;;;;;5079577;28;20188;-85
2023/03/02 07:49:49;;;;;;;136.37;69.87;;;;;;;;;;5057861;28;20195;-84
2023/03/02 07:52:15;;;;;;;127.83;67.17;;;;;;;;;;5061397;28;20192;-84
2023/03/02 07:54:41;;;;;;;111.80;65.87;;;;;;;;;;5068075;28;20661;-87
2023/03/02 07:57:07;;;;;;;118.27;64.03;;;;;;;;;;5075135;28;20561;-84
2023/03/02 07:59:34;;;;;;;114.10;63.67;;;;;;;;;;5047954;28;20674;-86
2023/03/02 08:02:00;;;;;;;116.77;63.03;;;;;;;;;;5062307;28;20192;-86
2023/03/02 08:04:26;;;;;;;108.13;63.13;;;;;;;;;;5080840;28;20292;-84
2023/03/02 08:06:52;;;;;;;111.33;64.30;;;;;;;;;;5072960;28;20212;-85
2023/03/02 08:09:18;;;;;;;99.33;60.33;;;;;;;;;;5056191;28;20182;-86
2023/03/02 08:11:45;;;;;;;102.70;61.53;;;;;;;;;;5081478;28;20192;-87
2023/03/02 08:14:10;;;;;;;104.27;62.33;;;;;;;;;;5079399;28;20645;-86
2023/03/02 08:16:38;;;;;;;100.07;59.77;;;;;;;;;;5084279;28;20265;-85
2023/03/02 08:19:04;;;;;;;108.17;62.77;;;;;;;;;;5087381;28;20272;-83
2023/03/02 08:21:30;;;;;;;92.87;58.67;;;;;;;;;;5086251;28;20292;-85
2023/03/02 08:23:57;;;;;;;94.03;57.30;;;;;;;;;;5065085;28;20176;-86
2023/03/02 08:26:23;;;;;;;92.80;55.03;;;;;;;;;;5085835;28;20593;-85
2023/03/02 08:28:49;;;;;;;99.00;56.77;;;;;;;;;;5070093;28;20181;-85
2023/03/02 08:31:15;;;;;;;87.57;53.83;;;;;;;;;;5070921;28;20196;-85
2023/03/02 08:33:41;;;;;;;84.17;52.83;;;;;;;;;;5084959;28;20256;-85
2023/03/02 08:36:10;;;;;;;88.80;52.97;;;;;;;;;;5067884;28;20204;-85
2023/03/02 08:38:36;;;;;;;94.87;53.73;;;;;;;;;;5083621;28;20189;-85
2023/03/02 08:41:03;;;;;;;83.33;49.77;;;;;;;;;;5076993;28;20212;-86
2023/03/02 08:43:29;;;;;;;76.87;47.93;;;;;;;;;;5069811;28;20190;-85
2023/03/02 08:45:59;;;;;;;80.37;47.83;;;;;;;;;;5090807;28;20189;-85
2023/03/02 08:48:25;;;;;;;72.03;44.77;;;;;;;;;;5054347;28;20180;-85
2023/03/02 08:50:55;;;;;;;66.70;44.03;;;;;;;;;;5079221;28;20180;-85
2023/03/02 08:53:22;;;;;;;69.40;43.83;;;;;;;;;;5060300;28;20181;-85
2023/03/02 08:55:48;;;;;;;61.30;41.57;;;;;;;;;;5078245;28;20219;-85
2023/03/02 08:58:14;;;;;;;61.87;40.63;;;;;;;;;;5067066;28;20726;-85
2023/03/02 09:00:40;;;;;;;59.70;38.77;;;;;;;;;;5070400;28;20304;-85
2023/03/02 09:03:06;;;;;;;59.47;37.67;;;;;;;;;;5077396;28;20181;-85
2023/03/02 09:05:32;;;;;;;56.87;39.23;;;;;;;;;;5050945;28;20215;-85
2023/03/02 09:07:58;;;;;;;56.00;38.83;;;;;;;;;;5079145;28;20660;-84
2023/03/02 09:10:24;;;;;;;55.23;37.40;;;;;;;;;;5066153;28;20537;-84
2023/03/02 09:12:50;;;;;;;64.07;45.43;;;;;;;;;;5049801;28;20227;-84
2023/03/02 09:15:16;;;;;;;59.53;40.60;;;;;;;;;;5087730;28;20173;-85
2023/03/02 09:17:42;;;;;;;53.87;36.23;;;;;;;;;;5044662;28;20185;-85
2023/03/02 09:20:08;;;;;;;49.97;33.67;;;;;;;;;;5064396;28;20266;-85
2023/03/02 09:22:34;;;;;;;46.80;33.50;;;;;;;;;;5081178;28;20188;-85
2023/03/02 09:25:01;;;;;;;43.77;28.93;;;;;;;;;;5070726;28;20208;-84
2023/03/02 09:27:27;;;;;;;39.67;28.03;;;;;;;;;;5090099;28;20271;-85
2023/03/02 09:29:53;;;;;;;37.93;27.23;;;;;;;;;;5083778;28;20181;-85
2023/03/02 09:32:19;;;;;;;33.67;22.87;;;;;;;;;;5084093;28;20693;-85
2023/03/02 09:34:45;;;;;;;34.93;22.97;;;;;;;;;;5058681;28;20263;-84
2023/03/02 09:37:11;;;;;;;34.33;22.93;;;;;;;;;;5067500;28;20192;-85
2023/03/02 09:39:38;;;;;;;56.50;40.43;;;;;;;;;;5072420;28;20201;-85
2023/03/02 09:42:13;;;;;;;41.97;32.93;;;;;;;;;;5075047;28;20204;-84
2023/03/02 09:45:06;;;;;;;33.33;24.00;;;;;;;;;;5089545;28;20653;-84
2023/03/02 09:47:32;;;;;;;23.93;18.20;;;;;;;;;;4974659;28;20192;-85
2023/03/02 09:50:23;;;;;;;26.53;17.83;;;;;;;;;;4967219;28;20206;-85
2023/03/02 09:53:03;;;;;;;33.13;25.20;;;;;;;;;;4973253;28;20649;-85
2023/03/02 09:55:34;;;;;;;23.93;17.60;;;;;;;;;;4971861;28;20695;-85
2023/03/02 09:58:03;;;;;;;20.47;16.43;;;;;;;;;;4974155;28;20200;-86
2023/03/02 10:00:31;;;;;;;18.70;13.90;;;;;;;;;;4976345;28;20211;-85
2023/03/02 10:03:01;;;;;;;24.97;16.27;;;;;;;;;;4963909;28;20641;-86
2023/03/02 10:05:29;;;;;;;19.23;14.63;;;;;;;;;;4973532;28;20298;-84
2023/03/02 10:07:55;;;;;;;16.87;14.33;;;;;;;;;;4992539;28;20561;-85
2023/03/02 10:10:24;;;;;;;15.27;11.63;;;;;;;;;;4976235;28;20191;-85
2023/03/02 10:12:52;;;;;;;19.40;12.30;;;;;;;;;;4976048;28;20707;-85
2023/03/02 10:15:23;;;;;;;14.00;11.33;;;;;;;;;;4965019;28;20176;-85
2023/03/02 10:18:01;;;;;;;13.93;9.67;;;;;;;;;;4991324;28;20203;-86
2023/03/02 10:20:34;;;;;;;13.87;10.90;;;;;;;;;;4990637;28;20223;-84
2023/03/02 10:23:07;;;;;;;12.60;9.43;;;;;;;;;;4973549;28;20191;-84
2023/03/02 10:25:41;;;;;;;12.43;10.00;;;;;;;;;;5070122;28;20173;-84
2023/03/02 10:28:15;;;;;;;13.67;8.40;;;;;;;;;;5071063;28;20713;-84
2023/03/02 10:30:41;;;;;;;16.43;10.40;;;;;;;;;;5039610;28;20283;-84
2023/03/02 10:33:18;;;;;;;14.93;9.60;;;;;;;;;;5067855;28;20173;-85
2023/03/02 10:35:49;;;;;;;13.80;9.40;;;;;;;;;;5048015;28;20209;-85
2023/03/02 10:38:16;;;;;;;13.07;8.87;;;;;;;;;;5040013;28;20210;-85
2023/03/02 10:40:55;;;;;;;13.10;9.23;;;;;;;;;;5036565;28;20297;-85
2023/03/02 10:43:37;;;;;;;13.87;8.67;;;;;;;;;;5047388;28;20184;-85
2023/03/02 10:46:06;;;;;;;12.07;9.13;;;;;;;;;;5034593;28;20194;-85
2023/03/02 10:48:35;;;;;;;10.07;7.73;;;;;;;;;;5048225;28;20189;-85
2023/03/02 10:51:01;;;;;;;8.70;6.73;;;;;;;;;;5039503;28;20581;-85
2023/03/02 10:53:27;;;;;;;10.20;6.63;;;;;;;;;;5046242;28;20182;-85
2023/03/02 10:55:53;;;;;;;13.53;9.87;;;;;;;;;;5036568;28;20191;-85
2023/03/02 10:58:26;;;;;;;17.47;11.67;;;;;;;;;;5049060;28;20186;-85
2023/03/02 11:01:15;;;;;;;13.13;8.63;;;;;;;;;;5049379;28;20261;-85
2023/03/02 11:03:41;;;;;;;13.50;9.00;;;;;;;;;;5048591;28;20273;-85
2023/03/02 11:06:18;;;;;;;12.50;8.83;;;;;;;;;;5052217;28;21281;-84
2023/03/02 11:08:44;;;;;;;14.17;9.43;;;;;;;;;;5051525;28;20185;-85
2023/03/02 11:11:20;;;;;;;11.53;8.20;;;;;;;;;;5041819;28;20225;-85
2023/03/02 11:13:46;;;;;;;12.17;8.53;;;;;;;;;;5038930;28;20972;-86
2023/03/02 11:16:18;;;;;;;16.30;11.33;;;;;;;;;;5039480;28;20265;-85
2023/03/02 11:18:48;;;;;;;16.57;10.43;;;;;;;;;;5033708;28;20700;-85
2023/03/02 11:21:20;;;;;;;13.47;9.50;;;;;;;;;;5037358;28;20210;-85
2023/03/02 11:23:55;;;;;;;14.40;9.43;;;;;;;;;;5046691;28;20216;-84
2023/03/02 11:26:27;;;;;;;13.53;9.23;;;;;;;;;;5050278;28;20192;-83
2023/03/02 11:29:02;;;;;;;11.00;7.97;;;;;;;;;;5046666;28;20190;-83
2023/03/02 11:31:32;;;;;;;9.87;7.57;;;;;;;;;;5035237;28;20185;-84
2023/03/02 11:34:05;;;;;;;11.33;8.40;;;;;;;;;;5024977;28;20254;-84
2023/03/02 11:36:51;;;;;;;9.57;7.50;;;;;;;;;;5027776;28;20183;-84
2023/03/02 11:39:20;;;;;;;10.90;8.70;;;;;;;;;;5014323;28;20179;-84
2023/03/02 11:41:46;;;;;;;12.03;8.90;;;;;;;;;;5011641;28;20555;-83
2023/03/02 11:44:18;;;;;;;14.00;8.63;;;;;;;;;;5021633;28;20202;-84
2023/03/02 11:46:47;;;;;;;12.17;9.27;;;;;;;;;;5029384;28;20593;-83
2023/03/02 11:49:24;;;;;;;14.03;10.23;;;;;;;;;;5029174;28;20206;-83
2023/03/02 11:51:55;;;;;;;12.47;9.53;;;;;;;;;;5030771;28;20666;-84
2023/03/02 11:54:40;;;;;;;13.03;9.40;;;;;;;;;;5025267;28;20179;-83
2023/03/02 11:57:06;;;;;;;13.87;9.57;;;;;;;;;;5024378;28;20228;-84
2023/03/02 11:59:33;;;;;;;13.23;10.43;;;;;;;;;;5026655;28;20226;-83
2023/03/02 12:02:00;;;;;;;15.73;11.97;;;;;;;;;;5015326;28;20186;-84
2023/03/02 12:04:34;;;;;;;17.30;12.47;;;;;;;;;;5012756;28;20180;-84
2023/03/02 12:07:02;;;;;;;13.37;10.13;;;;;;;;;;5011911;28;20314;-83
2023/03/02 12:09:37;;;;;;;13.37;10.33;;;;;;;;;;5026450;28;20179;-83
2023/03/02 12:12:18;;;;;;;14.50;10.07;;;;;;;;;;5024029;28;20183;-83
2023/03/02 12:14:44;;;;;;;17.63;11.33;;;;;;;;;;5025026;28;20189;-83
2023/03/02 12:17:20;;;;;;;16.40;11.20;;;;;;;;;;5025886;28;20191;-83
2023/03/02 12:19:46;;;;;;;16.23;11.63;;;;;;;;;;5015337;28;20220;-84
2023/03/02 12:22:14;;;;;;;17.27;10.40;;;;;;;;;;5010577;28;20183;-82
2023/03/02 12:24:44;;;;;;;15.77;10.03;;;;;;;;;;5015352;28;20197;-84
2023/03/02 12:27:10;;;;;;;11.10;8.73;;;;;;;;;;5015586;28;20187;-83
2023/03/02 12:29:42;;;;;;;12.50;9.50;;;;;;;;;;5026753;28;20191;-83
2023/03/02 12:32:11;;;;;;;13.57;10.20;;;;;;;;;;5015609;28;20214;-83
2023/03/02 12:34:38;;;;;;;13.77;10.50;;;;;;;;;;5022952;28;20223;-83
2023/03/02 12:37:06;;;;;;;13.87;10.73;;;;;;;;;;5027841;28;20201;-84
2023/03/02 12:40:08;;;;;;;20.23;11.80;;;;;;;;;;5032906;28;20208;-84
2023/03/02 12:42:37;;;;;;;13.63;11.23;;;;;;;;;;4974509;28;20297;-83
2023/03/02 12:45:13;;;;;;;15.27;11.13;;;;;;;;;;4989555;28;20207;-83
2023/03/02 12:47:43;;;;;;;17.50;12.33;;;;;;;;;;4983775;28;20190;-83
2023/03/02 12:50:23;;;;;;;12.07;9.17;;;;;;;;;;4991191;28;20207;-83
2023/03/02 12:52:57;;;;;;;12.83;9.80;;;;;;;;;;4979619;28;20183;-82
2023/03/02 12:55:23;;;;;;;13.93;10.27;;;;;;;;;;4995337;28;20191;-83
2023/03/02 12:57:54;;;;;;;15.00;10.83;;;;;;;;;;4997651;28;20198;-83
2023/03/02 13:00:25;;;;;;;12.10;9.97;;;;;;;;;;4985274;28;20211;-82
2023/03/02 13:02:52;;;;;;;13.97;10.03;;;;;;;;;;4998139;28;20206;-82
2023/03/02 13:05:21;;;;;;;14.03;10.03;;;;;;;;;;4993914;28;20190;-83
2023/03/02 13:08:01;;;;;;;17.03;11.80;;;;;;;;;;4997553;28;20219;-82
2023/03/02 13:10:27;;;;;;;17.73;12.30;;;;;;;;;;4984353;28;20713;-83
2023/03/02 13:12:53;;;;;;;15.40;11.67;;;;;;;;;;4999342;28;20206;-83
2023/03/02 13:15:19;;;;;;;17.30;12.53;;;;;;;;;;4994367;28;20687;-84
2023/03/02 13:17:52;;;;;;;18.93;13.13;;;;;;;;;;5023456;28;20186;-82
2023/03/02 13:20:18;;;;;;;19.40;13.27;;;;;;;;;;5043388;28;20199;-83
2023/03/02 13:22:44;;;;;;;15.20;12.57;;;;;;;;;;5034064;28;20187;-84
2023/03/02 13:25:23;;;;;;;17.90;14.13;;;;;;;;;;5043315;28;20181;-84
2023/03/02 13:27:53;;;;;;;18.60;13.27;;;;;;;;;;5049641;28;20224;-84
2023/03/02 13:30:22;;;;;;;17.00;12.60;;;;;;;;;;5035196;28;20543;-83
2023/03/02 13:32:50;;;;;;;17.97;11.90;;;;;;;;;;5055573;28;20191;-84
2023/03/02 13:35:19;;;;;;;16.27;12.07;;;;;;;;;;5041409;28;20264;-84
2023/03/02 13:37:45;;;;;;;16.07;11.57;;;;;;;;;;5031155;28;20186;-83
2023/03/02 13:40:29;;;;;;;16.53;12.47;;;;;;;;;;5044335;28;20219;-84
2023/03/02 13:42:55;;;;;;;17.53;12.87;;;;;;;;;;5025978;28;20197;-84
2023/03/02 13:45:26;;;;;;;17.43;12.97;;;;;;;;;;5019318;28;20226;-83
2023/03/02 13:47:53;;;;;;;17.90;13.03;;;;;;;;;;5024348;28;20191;-83
2023/03/02 13:50:24;;;;;;;16.80;12.30;;;;;;;;;;5032718;28;20655;-83
2023/03/02 13:52:50;;;;;;;17.90;12.47;;;;;;;;;;5028205;28;20222;-83
2023/03/02 13:55:17;;;;;;;20.07;12.77;;;;;;;;;;5030573;28;20178;-83
2023/03/02 13:57:46;;;;;;;22.13;14.20;;;;;;;;;;5028721;28;20221;-83
2023/03/02 14:00:18;;;;;;;15.77;12.00;;;;;;;;;;5030613;28;20206;-84
2023/03/02 14:02:44;;;;;;;18.83;13.57;;;;;;;;;;5024506;28;20535;-85
2023/03/02 14:05:20;;;;;;;20.43;14.80;;;;;;;;;;5021212;28;20197;-84
2023/03/02 14:07:47;;;;;;;22.53;15.90;;;;;;;;;;5015805;28;20187;-84
2023/03/02 14:10:14;;;;;;;26.90;19.23;;;;;;;;;;5027512;28;20178;-84
2023/03/02 14:12:41;;;;;;;22.97;17.77;;;;;;;;;;5028020;28;20720;-84
2023/03/02 14:15:10;;;;;;;25.37;18.27;;;;;;;;;;5030074;28;20186;-84
2023/03/02 14:17:36;;;;;;;23.27;17.77;;;;;;;;;;5060051;28;20182;-84
2023/03/02 14:20:02;;;;;;;27.67;18.57;;;;;;;;;;5029271;28;20709;-84
2023/03/02 14:22:29;;;;;;;27.57;18.90;;;;;;;;;;5030489;28;20187;-84
2023/03/02 14:24:55;;;;;;;31.00;20.23;;;;;;;;;;5017619;28;20258;-84